Time;durP1;ratioP1;P1;durP2;ratioP2;P2;SDS_P1;SDS_P2;PMS_P1;PMS_P2;Temp;Humidity;BMP_temperature;BMP_pressure;BME280_temperature;BME280_humidity;BME280_pressure;Samples;Min_cycle;Max_cycle;Signal;HPM_P1;HPM_P2
2024/01/04 00:00:47;;;;;;;0.93;0.52;;;;;;;5.85;100.00;91658.72;2101669;28;20035;-78
2024/01/04 00:01:48;;;;;;;1.50;0.22;;;;;;;5.78;100.00;91653.63;2106032;28;20050;-79
2024/01/04 00:02:50;;;;;;;3.33;0.50;;;;;;;5.86;100.00;91664.78;2101883;28;20035;-82
2024/01/04 00:03:51;;;;;;;3.38;0.75;;;;;;;5.77;100.00;91654.78;2109454;27;20063;-79
2024/01/04 00:04:52;;;;;;;1.00;0.40;;;;;;;5.87;100.00;91667.00;2108386;28;20036;-80
2024/01/04 00:05:53;;;;;;;2.80;0.60;;;;;;;5.91;100.00;91667.66;2088887;28;20111;-79
2024/01/04 00:06:58;;;;;;;2.35;0.40;;;;;;;5.92;100.00;91657.81;2094092;28;20028;-80
2024/01/04 00:07:59;;;;;;;2.45;0.50;;;;;;;6.10;100.00;91665.25;2102776;28;20035;-79
2024/01/04 00:09:00;;;;;;;2.35;0.50;;;;;;;6.02;100.00;91665.47;2089601;28;20077;-81
2024/01/04 00:10:01;;;;;;;1.15;0.60;;;;;;;5.92;100.00;91671.06;2100893;28;20028;-81
2024/01/04 00:11:06;;;;;;;3.88;0.55;;;;;;;6.17;100.00;91673.03;2101899;28;20864;-81
2024/01/04 00:14:29;;;;;;;0.85;0.38;;;;;;;5.78;100.00;91677.47;2096410;28;20024;-83
2024/01/04 00:15:30;;;;;;;0.70;0.40;;;;;;;5.84;100.00;91677.69;2106819;28;20642;-82
2024/01/04 00:16:34;;;;;;;2.38;0.57;;;;;;;5.84;100.00;91678.47;2097028;28;20031;-82
2024/01/04 00:17:35;;;;;;;3.45;0.65;;;;;;;5.77;100.00;91691.91;2086122;28;20029;-80
2024/01/04 00:18:35;;;;;;;2.13;0.57;;;;;;;5.59;100.00;91681.78;2095605;28;20037;-78
2024/01/04 00:22:08;;;;;;;1.40;0.50;;;;;;;5.57;100.00;91702.63;2106099;28;20066;-81
2024/01/04 00:23:35;;;;;;;0.75;0.60;;;;;;;5.53;100.00;91688.72;2099596;28;20074;-81
2024/01/04 00:24:38;;;;;;;0.82;0.30;;;;;;;5.62;100.00;91698.72;2097510;28;20060;-83
2024/01/04 00:25:39;;;;;;;1.35;0.47;;;;;;;5.70;100.00;91695.47;2091334;28;20559;-81
2024/01/04 00:26:40;;;;;;;1.85;0.43;;;;;;;5.57;100.00;91705.28;2096951;28;20082;-80
2024/01/04 00:27:41;;;;;;;1.05;0.47;;;;;;;5.70;100.00;91703.41;2096792;28;20437;-80
2024/01/04 00:28:42;;;;;;;1.27;0.73;;;;;;;5.64;100.00;91694.50;2108924;28;20499;-80
2024/01/04 00:29:43;;;;;;;1.77;0.40;;;;;;;5.73;100.00;91691.25;2111878;28;20232;-78
2024/01/04 00:30:44;;;;;;;3.08;0.82;;;;;;;5.80;100.00;91699.75;2101943;28;20116;-79
2024/01/04 00:31:45;;;;;;;3.92;0.60;;;;;;;5.72;100.00;91701.13;2091350;28;20640;-80
2024/01/04 00:32:46;;;;;;;2.67;0.55;;;;;;;5.58;100.00;91682.19;2083945;28;20052;-78
2024/01/04 00:33:47;;;;;;;2.28;0.57;;;;;;;5.75;100.00;91705.59;2083359;28;20513;-80
2024/01/04 00:34:48;;;;;;;2.83;0.55;;;;;;;5.69;100.00;91691.34;2096765;28;20043;-79
2024/01/04 00:35:49;;;;;;;5.65;0.70;;;;;;;5.61;100.00;91707.84;2096617;28;20068;-79
2024/01/04 00:36:50;;;;;;;4.45;0.63;;;;;;;5.47;100.00;91688.50;2088309;28;20021;-80
2024/01/04 00:37:51;;;;;;;2.45;0.52;;;;;;;5.38;100.00;91685.72;2088609;28;20035;-80
2024/01/04 00:38:52;;;;;;;1.67;0.40;;;;;;;5.58;100.00;91685.59;2084484;28;20111;-82
2024/01/04 00:39:53;;;;;;;2.97;0.47;;;;;;;5.61;100.00;91694.59;2105065;28;20130;-79
2024/01/04 00:41:22;;;;;;;1.65;0.52;;;;;;;5.54;100.00;91692.88;2100480;28;20127;-80
2024/01/04 00:46:18;;;;;;;1.90;1.00;;;;;;;5.75;100.00;91697.63;2104096;28;20074;-79
2024/01/04 00:47:18;;;;;;;6.80;0.73;;;;;;;5.69;100.00;91701.19;2102113;28;20065;-81
2024/01/04 00:48:19;;;;;;;2.65;0.60;;;;;;;5.68;100.00;91694.41;2096381;28;20051;-82
2024/01/04 00:49:20;;;;;;;1.27;0.50;;;;;;;5.64;100.00;91694.50;2089135;28;20528;-81
2024/01/04 00:54:15;;;;;;;2.28;0.52;;;;;;;5.78;100.00;91704.00;2093662;28;20135;-77
2024/01/04 00:55:16;;;;;;;3.10;0.50;;;;;;;5.62;100.00;91699.50;2089677;28;20791;-80
2024/01/04 00:56:18;;;;;;;1.38;0.50;;;;;;;5.62;100.00;91704.78;2097389;28;20103;-81
2024/01/04 00:57:19;;;;;;;4.55;0.55;;;;;;;5.53;100.00;91701.97;2096478;28;20016;-84
2024/01/04 00:58:20;;;;;;;1.85;0.75;;;;;;;5.50;100.00;91698.28;2089399;28;20016;-83
2024/01/04 00:59:21;;;;;;;4.05;0.77;;;;;;;5.56;100.00;91703.81;2089228;28;20124;-80
2024/01/04 01:00:22;;;;;;;4.13;0.55;;;;;;;5.43;100.00;91710.94;2101016;28;20092;-82
2024/01/04 01:01:23;;;;;;;1.45;0.50;;;;;;;5.51;100.00;91718.31;2104483;28;20456;-79
2024/01/04 01:02:24;;;;;;;1.75;0.50;;;;;;;5.66;100.00;91716.03;2113077;28;20019;-81
2024/01/04 01:07:19;;;;;;;2.78;0.35;;;;;;;5.50;100.00;91706.22;2105850;28;20039;-77
2024/01/04 01:10:17;;;;;;;3.17;0.60;;;;;;;5.60;100.00;91699.16;2096187;28;20029;-79
2024/01/04 01:11:33;;;;;;;0.68;0.47;;;;;;;5.62;100.00;91699.50;2086185;28;20033;-81
2024/01/04 01:17:18;;;;;;;1.48;0.40;;;;;;;5.60;100.00;91706.38;2105884;28;20116;-78
2024/01/04 01:18:18;;;;;;;5.18;0.63;;;;;;;5.55;100.00;91712.91;2089537;28;20100;-78
2024/01/04 01:19:19;;;;;;;4.25;0.57;;;;;;;5.56;100.00;91704.53;2094870;28;20047;-83
2024/01/04 01:20:20;;;;;;;1.20;0.45;;;;;;;5.59;100.00;91702.22;2097054;28;20023;-80
2024/01/04 01:21:21;;;;;;;3.92;0.70;;;;;;;5.70;100.00;91713.28;2097509;28;20369;-77
2024/01/04 01:24:19;;;;;;;1.98;0.45;;;;;;;5.46;100.00;91712.78;2107025;28;20020;-78
2024/01/04 01:25:21;;;;;;;2.80;0.50;;;;;;;5.45;100.00;91709.38;2113441;28;20031;-79
2024/01/04 01:26:22;;;;;;;3.60;0.73;;;;;;;5.47;100.00;91701.00;2091090;28;20111;-80
2024/01/04 01:27:26;;;;;;;0.20;0.20;;;;;;;5.46;100.00;91696.88;2089354;28;20497;-80
2024/01/04 01:28:27;;;;;;;1.08;0.40;;;;;;;5.35;100.00;91699.78;2102021;28;20024;-79
2024/01/04 01:29:28;;;;;;;1.45;0.32;;;;;;;5.61;100.00;91692.69;2087677;28;20028;-79
2024/01/04 01:30:29;;;;;;;2.70;0.57;;;;;;;5.43;100.00;91709.03;2099090;28;20895;-79
2024/01/04 01:33:27;;;;;;;1.90;0.60;;;;;;;5.51;100.00;91736.13;2096117;28;20028;-81
2024/01/04 01:34:28;;;;;;;1.05;0.60;;;;;;;5.59;100.00;91723.44;2096215;28;20048;-80
2024/01/04 01:35:29;;;;;;;2.53;0.30;;;;;;;5.67;100.00;91716.78;2104959;28;20075;-80
2024/01/04 01:39:06;;;;;;;0.30;0.20;;;;;;;5.68;100.00;91739.47;2097536;28;20036;-80
2024/01/04 01:40:52;;;;;;;0.95;0.30;;;;;;;5.65;100.00;91743.69;2093137;28;20039;-78
2024/01/04 01:43:50;;;;;;;1.35;0.52;;;;;;;5.63;100.00;91747.94;2107406;28;20027;-78
2024/01/04 01:44:51;;;;;;;0.63;0.40;;;;;;;5.51;100.00;91749.38;2108571;28;20035;-81
2024/01/04 01:45:52;;;;;;;1.63;0.47;;;;;;;5.58;100.00;91753.75;2092176;28;20029;-78
2024/01/04 01:46:53;;;;;;;1.10;0.30;;;;;;;5.53;100.00;91747.03;2082854;28;20037;-79
2024/01/04 01:47:55;;;;;;;0.95;0.32;;;;;;;5.48;100.00;91739.59;2101408;28;20028;-77
2024/01/04 01:48:56;;;;;;;2.67;0.45;;;;;;;5.70;100.00;91753.78;2104363;28;20093;-78
2024/01/04 01:50:06;;;;;;;1.98;0.40;;;;;;;5.64;100.00;91747.53;2101639;28;20093;-80
2024/01/04 01:51:07;;;;;;;0.43;0.30;;;;;;;5.56;100.00;91746.94;2093329;28;20064;-78
2024/01/04 01:54:06;;;;;;;1.05;0.30;;;;;;;5.70;100.00;91731.84;2100167;28;20132;-80
2024/01/04 01:55:09;;;;;;;0.68;0.32;;;;;;;5.72;100.00;91737.50;2085662;28;20524;-78
2024/01/04 01:56:10;;;;;;;0.57;0.50;;;;;;;5.78;100.00;91733.88;2092548;28;20038;-80
2024/01/04 01:57:11;;;;;;;2.50;0.60;;;;;;;5.58;100.00;91754.50;2086558;28;20086;-80
2024/01/04 01:58:12;;;;;;;0.82;0.38;;;;;;;5.58;100.00;91735.94;2106259;27;20039;-79
2024/01/04 01:59:14;;;;;;;1.13;0.50;;;;;;;5.61;100.00;91742.31;2111670;27;20023;-81
2024/01/04 02:00:15;;;;;;;0.73;0.50;;;;;;;5.59;100.00;91748.03;2093399;28;20028;-80
2024/01/04 02:01:16;;;;;;;2.70;0.40;;;;;;;5.59;100.00;91750.69;2088061;28;20028;-80
2024/01/04 02:02:17;;;;;;;0.63;0.35;;;;;;;5.68;100.00;91761.44;2104252;28;20380;-79
2024/01/04 02:03:19;;;;;;;3.90;0.57;;;;;;;5.86;100.00;91752.28;2104200;28;20103;-78
2024/01/04 02:04:20;;;;;;;1.63;0.47;;;;;;;5.76;100.00;91760.09;2104231;28;20437;-79
2024/01/04 02:05:23;;;;;;;2.58;0.50;;;;;;;5.75;100.00;91755.97;2095858;28;20028;-80
2024/01/04 02:06:24;;;;;;;1.00;0.45;;;;;;;5.60;100.00;91776.03;2088438;28;20088;-80
2024/01/04 02:07:25;;;;;;;1.70;0.68;;;;;;;5.63;100.00;91767.25;2086102;28;20044;-81
2024/01/04 02:10:32;;;;;;;0.55;0.28;;;;;;;5.71;100.00;91779.16;2098441;28;20029;-79
2024/01/04 02:11:33;;;;;;;1.02;0.50;;;;;;;5.76;100.00;91783.22;2089657;28;20505;-80
2024/01/04 02:12:34;;;;;;;0.95;0.40;;;;;;;5.68;100.00;91776.59;2085734;28;20289;-80
2024/01/04 02:13:35;;;;;;;2.45;0.30;;;;;;;5.62;100.00;91783.53;2102713;28;20035;-81
2024/01/04 02:14:36;;;;;;;0.52;0.40;;;;;;;5.64;100.00;91765.34;2085557;28;20102;-80
2024/01/04 02:15:37;;;;;;;1.58;0.40;;;;;;;5.58;100.00;91777.63;2084780;28;20573;-79
2024/01/04 02:16:56;;;;;;;2.53;0.30;;;;;;;5.56;100.00;91773.44;2089928;28;20063;-79
2024/01/04 02:17:57;;;;;;;1.23;0.40;;;;;;;5.69;100.00;91773.50;2101611;28;20035;-80
2024/01/04 02:18:58;;;;;;;1.67;0.30;;;;;;;5.61;100.00;91784.72;2093748;28;20024;-81
2024/01/04 02:19:59;;;;;;;0.98;0.43;;;;;;;5.75;100.00;91777.16;2092927;28;20025;-79
2024/01/04 02:21:01;;;;;;;1.23;0.38;;;;;;;5.78;100.00;91764.97;2104681;28;20024;-79
2024/01/04 02:22:02;;;;;;;0.65;0.30;;;;;;;5.90;100.00;91771.50;2096101;28;20143;-78
2024/01/04 02:23:03;;;;;;;1.75;0.30;;;;;;;5.78;100.00;91784.25;2094194;28;20039;-80
2024/01/04 02:24:10;;;;;;;1.40;0.28;;;;;;;5.84;100.00;91787.19;2099763;28;20485;-79
2024/01/04 02:25:11;;;;;;;0.75;0.20;;;;;;;5.83;100.00;91790.97;2089426;28;20441;-79
2024/01/04 02:26:12;;;;;;;1.33;0.50;;;;;;;5.99;100.00;91788.31;2099736;28;20127;-78
2024/01/04 02:27:13;;;;;;;1.17;0.40;;;;;;;5.89;100.00;91776.06;2087786;28;20039;-78
2024/01/04 02:28:14;;;;;;;1.48;0.40;;;;;;;5.89;100.00;91775.31;2089000;28;20071;-81
2024/01/04 02:29:15;;;;;;;0.45;0.25;;;;;;;6.04;100.00;91787.06;2099798;28;20522;-82
2024/01/04 02:30:16;;;;;;;0.98;0.30;;;;;;;5.88;100.00;91795.00;2081779;28;20521;-80
2024/01/04 02:31:17;;;;;;;0.88;0.45;;;;;;;5.67;100.00;91778.50;2082176;28;20057;-78
2024/01/04 02:32:18;;;;;;;0.63;0.30;;;;;;;5.66;100.00;91794.81;2094665;28;20024;-81
2024/01/04 02:33:19;;;;;;;0.95;0.32;;;;;;;5.70;100.00;91792.81;2094906;28;20025;-80
2024/01/04 02:34:20;;;;;;;1.58;0.47;;;;;;;5.74;100.00;91780.22;2087779;28;20047;-79
2024/01/04 02:35:21;;;;;;;2.95;0.45;;;;;;;5.52;100.00;91801.94;2096006;28;20019;-80
2024/01/04 02:36:23;;;;;;;0.47;0.20;;;;;;;5.72;100.00;91793.16;2113154;28;20024;-78
2024/01/04 02:37:24;;;;;;;0.30;0.30;;;;;;;5.64;100.00;91794.50;2113352;28;20024;-78
2024/01/04 02:38:25;;;;;;;1.48;0.43;;;;;;;5.77;100.00;91795.31;2104139;28;20035;-78
2024/01/04 02:39:26;;;;;;;0.63;0.30;;;;;;;5.80;100.00;91808.47;2087758;28;20088;-80
2024/01/04 02:40:42;;;;;;;0.28;0.28;;;;;;;5.84;100.00;91799.66;2085884;28;20025;-82
2024/01/04 02:41:43;;;;;;;0.50;0.25;;;;;;;5.55;100.00;91808.34;2102532;28;20109;-80
2024/01/04 02:42:44;;;;;;;0.90;0.30;;;;;;;5.84;100.00;91807.63;2092196;28;20094;-80
2024/01/04 02:43:45;;;;;;;0.63;0.30;;;;;;;5.85;100.00;91833.00;2091447;28;20689;-79
2024/01/04 02:44:46;;;;;;;0.50;0.22;;;;;;;5.83;100.00;91822.78;2108630;28;20120;-79
2024/01/04 02:45:47;;;;;;;0.63;0.35;;;;;;;5.83;100.00;91812.19;2091716;28;20381;-77
2024/01/04 02:46:48;;;;;;;0.20;0.20;;;;;;;5.82;100.00;91816.75;2091459;28;20063;-78
2024/01/04 02:47:49;;;;;;;0.43;0.40;;;;;;;5.70;100.00;91806.06;2085066;28;20481;-80
2024/01/04 02:48:50;;;;;;;0.75;0.43;;;;;;;5.72;100.00;91807.16;2092294;28;20044;-80
2024/01/04 02:49:51;;;;;;;0.82;0.35;;;;;;;5.83;100.00;91822.78;2091215;28;20028;-80
2024/01/04 02:50:55;;;;;;;0.65;0.30;;;;;;;5.89;100.00;91818.47;2073255;28;20045;-81
2024/01/04 02:51:56;;;;;;;0.60;0.30;;;;;;;5.69;100.00;91813.28;2087088;28;20041;-79
2024/01/04 02:52:57;;;;;;;0.28;0.20;;;;;;;5.82;100.00;91814.09;2102087;28;20436;-77
2024/01/04 02:56:45;;;;;;;0.30;0.30;;;;;;;5.89;100.00;91799.19;2104109;28;20021;-79
2024/01/04 03:00:30;;;;;;;0.30;0.30;;;;;;;6.00;100.00;91834.88;2097334;28;20452;-79
2024/01/04 03:01:31;;;;;;;1.85;0.30;;;;;;;5.78;100.00;91841.84;2095485;28;20151;-76
2024/01/04 03:02:32;;;;;;;0.95;0.40;;;;;;;5.83;100.00;91841.34;2104019;28;20569;-82
2024/01/04 03:03:33;;;;;;;1.50;0.38;;;;;;;5.53;100.00;91826.53;2103835;28;20078;-78
2024/01/04 03:04:34;;;;;;;0.60;0.30;;;;;;;5.66;100.00;91837.22;2104114;28;20031;-76
2024/01/04 03:05:34;;;;;;;0.30;0.30;;;;;;;5.63;100.00;91838.81;2095474;28;20270;-78
2024/01/04 03:06:38;;;;;;;1.42;0.65;;;;;;;5.77;100.00;91848.31;2096576;28;20029;-78
2024/01/04 03:07:39;;;;;;;0.45;0.40;;;;;;;5.62;100.00;91841.84;2103066;28;20071;-78
2024/01/04 03:08:40;;;;;;;2.08;0.32;;;;;;;5.56;100.00;91855.63;2100133;28;20032;-80
2024/01/04 03:09:41;;;;;;;0.82;0.32;;;;;;;5.62;100.00;91853.22;2093988;28;20387;-79
2024/01/04 03:10:42;;;;;;;0.52;0.47;;;;;;;5.67;100.00;91859.94;2093748;28;20253;-77
2024/01/04 03:11:46;;;;;;;1.05;0.20;;;;;;;5.63;100.00;91859.28;2092079;28;20486;-79
2024/01/04 03:12:47;;;;;;;2.80;0.70;;;;;;;5.72;100.00;91865.47;2099077;28;20063;-78
2024/01/04 03:13:50;;;;;;;0.20;0.20;;;;;;;5.78;100.00;91861.16;2101260;28;20094;-79
2024/01/04 03:14:51;;;;;;;1.20;0.30;;;;;;;5.80;100.00;91869.44;2095719;28;20473;-80
2024/01/04 03:19:17;;;;;;;1.25;0.50;;;;;;;5.67;100.00;91862.59;2095053;28;20078;-79
2024/01/04 03:20:18;;;;;;;1.58;0.30;;;;;;;5.55;100.00;91867.38;2098210;28;20106;-80
2024/01/04 03:21:19;;;;;;;2.35;0.40;;;;;;;5.55;100.00;91866.63;2087201;28;20052;-77
2024/01/04 03:22:20;;;;;;;1.38;0.40;;;;;;;5.51;100.00;91871.28;2095001;28;20048;-77
2024/01/04 03:23:21;;;;;;;1.50;0.30;;;;;;;5.63;100.00;91865.31;2104032;28;20024;-79
2024/01/04 03:24:24;;;;;;;1.98;0.35;;;;;;;5.74;100.00;91862.41;2101152;28;20058;-79
2024/01/04 03:25:25;;;;;;;0.55;0.20;;;;;;;5.53;100.00;91864.41;2094208;28;20619;-80
2024/01/04 03:26:26;;;;;;;0.68;0.40;;;;;;;5.38;100.00;91865.88;2098785;28;20036;-80
2024/01/04 03:27:27;;;;;;;1.17;0.30;;;;;;;5.43;100.00;91865.38;2097815;28;20054;-80
2024/01/04 03:28:28;;;;;;;1.63;0.43;;;;;;;5.61;100.00;91866.88;2108860;28;20028;-79
2024/01/04 03:29:44;;;;;;;1.20;0.32;;;;;;;5.64;100.00;91874.00;2096728;28;20123;-78
2024/01/04 03:32:43;;;;;;;3.33;0.50;;;;;;;5.63;100.00;91878.56;2103887;28;20751;-81
2024/01/04 03:33:44;;;;;;;1.65;0.30;;;;;;;5.73;100.00;91882.13;2103707;28;20036;-77
2024/01/04 03:37:08;;;;;;;0.35;0.35;;;;;;;5.65;100.00;91892.16;2103841;28;20028;-78
2024/01/04 03:41:02;;;;;;;1.17;0.30;;;;;;;5.65;100.00;91894.06;2101087;28;20119;-80
2024/01/04 03:44:01;;;;;;;2.17;0.30;;;;;;;5.44;100.00;91905.88;2099241;28;20036;-78
2024/01/04 03:45:11;;;;;;;1.23;0.30;;;;;;;5.66;100.00;91895.53;2090218;28;20123;-78
2024/01/04 03:50:07;;;;;;;0.80;0.28;;;;;;;5.46;100.00;91895.63;2103615;28;20477;-81
2024/01/04 03:51:10;;;;;;;1.02;0.98;;;;;;;5.60;100.00;91890.00;2102250;28;20088;-79
2024/01/04 03:52:11;;;;;;;0.73;0.20;;;;;;;5.68;100.00;91880.72;2095238;28;20029;-80
2024/01/04 03:53:13;;;;;;;0.63;0.38;;;;;;;5.81;100.00;91894.06;2079879;28;20029;-78
2024/01/04 03:54:55;;;;;;;1.05;0.30;;;;;;;5.59;100.00;91890.41;2077108;28;20021;-82
2024/01/04 03:56:30;;;;;;;0.75;0.20;;;;;;;5.77;100.00;91894.13;2087310;28;20041;-80
2024/01/04 03:57:52;;;;;;;0.20;0.20;;;;;;;5.84;100.00;91884.50;2088986;28;20048;-79
2024/01/04 03:59:37;;;;;;;1.25;0.50;;;;;;;5.67;100.00;91897.78;2081428;28;20038;-80
2024/01/04 04:02:56;;;;;;;0.30;0.20;;;;;;;5.78;100.00;91897.53;2093193;28;20036;-80
2024/01/04 04:10:02;;;;;;;1.25;0.30;;;;;;;5.77;100.00;91912.69;2096598;28;20058;-79
2024/01/04 04:11:03;;;;;;;0.65;0.30;;;;;;;5.55;100.00;91907.13;2103443;28;20075;-78
2024/01/04 04:12:05;;;;;;;4.60;0.50;;;;;;;5.55;100.00;91922.28;2098153;28;20067;-80
2024/01/04 04:16:00;;;;;;;0.90;0.30;;;;;;;5.65;100.00;91916.00;2098750;28;20032;-78
2024/01/04 04:17:36;;;;;;;1.95;0.30;;;;;;;5.43;100.00;91921.03;2083559;28;20425;-77
2024/01/04 04:20:36;;;;;;;2.75;0.57;;;;;;;5.59;100.00;91924.88;2098934;28;20364;-80
2024/01/04 04:21:43;;;;;;;0.25;0.22;;;;;;;5.68;100.00;91931.09;2110052;28;20031;-78
2024/01/04 04:22:46;;;;;;;0.40;0.40;;;;;;;5.49;100.00;91926.59;2099764;28;20102;-83
2024/01/04 04:24:03;;;;;;;0.80;0.30;;;;;;;5.73;100.00;91929.84;2085922;28;20033;-80
2024/01/04 04:25:42;;;;;;;0.30;0.30;;;;;;;5.60;100.00;91919.16;2084365;28;20040;-79
2024/01/04 04:26:43;;;;;;;2.38;0.45;;;;;;;5.65;100.00;91929.25;2084128;28;20029;-80
2024/01/04 04:27:44;;;;;;;3.33;0.40;;;;;;;5.63;100.00;91913.03;2080572;28;20033;-79
2024/01/04 04:28:45;;;;;;;0.77;0.30;;;;;;;5.54;100.00;91916.25;2084183;28;20060;-79
2024/01/04 04:29:46;;;;;;;1.17;0.30;;;;;;;5.54;100.00;91918.91;2093258;28;20123;-80
2024/01/04 04:30:47;;;;;;;3.10;0.32;;;;;;;5.72;100.00;91913.19;2102047;28;20058;-80
2024/01/04 04:31:48;;;;;;;1.48;0.30;;;;;;;5.50;100.00;91936.03;2104470;28;20843;-80
2024/01/04 04:32:49;;;;;;;0.85;0.40;;;;;;;5.46;100.00;91925.50;2091256;28;20486;-78
2024/01/04 04:33:50;;;;;;;1.70;0.30;;;;;;;5.62;100.00;91922.16;2093106;28;20362;-78
2024/01/04 04:36:48;;;;;;;0.80;0.20;;;;;;;5.54;100.00;91918.91;2100883;28;20027;-80
2024/01/04 04:37:49;;;;;;;2.47;0.50;;;;;;;5.59;100.00;91915.00;2105132;28;20044;-81
2024/01/04 04:38:50;;;;;;;2.17;0.60;;;;;;;5.75;100.00;91916.91;2104978;28;20031;-80
2024/01/04 04:39:51;;;;;;;2.22;0.40;;;;;;;5.54;100.00;91928.75;2104889;28;20392;-82
2024/01/04 04:40:52;;;;;;;3.00;0.30;;;;;;;5.73;100.00;91922.63;2095128;28;20488;-79
2024/01/04 04:41:53;;;;;;;1.08;0.32;;;;;;;5.77;100.00;91919.91;2088870;28;20469;-78
2024/01/04 04:42:54;;;;;;;5.70;0.40;;;;;;;5.61;100.00;91941.84;2108454;28;20031;-81
2024/01/04 04:44:40;;;;;;;1.42;0.50;;;;;;;5.43;100.00;91925.59;2090205;28;20036;-80
2024/01/04 04:46:32;;;;;;;2.03;0.35;;;;;;;5.62;100.00;91924.78;2092661;28;20099;-78
2024/01/04 04:49:29;;;;;;;1.88;0.43;;;;;;;5.79;100.00;91917.56;2103605;28;20064;-80
2024/01/04 04:50:30;;;;;;;1.65;0.40;;;;;;;5.60;100.00;91929.00;2106593;27;20032;-79
2024/01/04 04:53:28;;;;;;;1.15;0.38;;;;;;;5.66;100.00;91937.94;2101699;28;20119;-78
2024/01/04 04:54:29;;;;;;;0.90;0.30;;;;;;;5.83;100.00;91931.50;2097438;28;20028;-78
2024/01/04 04:57:30;;;;;;;1.83;0.52;;;;;;;5.75;100.00;91930.16;2105182;28;20024;-80
2024/01/04 04:58:47;;;;;;;1.73;0.38;;;;;;;5.83;100.00;91928.84;2109918;28;20454;-78
2024/01/04 05:00:23;;;;;;;0.98;0.30;;;;;;;6.08;100.00;91925.66;2097925;28;20059;-80
2024/01/04 05:05:18;;;;;;;0.70;0.30;;;;;;;5.80;100.00;91925.13;2100370;28;20492;-77
2024/01/04 05:08:16;;;;;;;3.05;0.60;;;;;;;5.86;100.00;91932.59;2096458;28;20032;-76
2024/01/04 05:09:17;;;;;;;1.38;0.30;;;;;;;6.07;100.00;91934.03;2095831;28;20028;-78
2024/01/04 05:10:18;;;;;;;0.30;0.20;;;;;;;5.97;100.00;91930.44;2104925;28;20130;-78
2024/01/04 05:13:17;;;;;;;2.15;0.45;;;;;;;5.61;100.00;91949.06;2094170;28;20024;-79
2024/01/04 05:14:46;;;;;;;0.80;0.28;;;;;;;5.89;100.00;91945.78;2089398;28;20048;-79
2024/01/04 05:15:47;;;;;;;3.03;0.85;;;;;;;6.00;100.00;91943.63;2100107;28;20882;-80
2024/01/04 05:16:49;;;;;;;2.00;0.47;;;;;;;5.83;100.00;91947.41;2083641;28;20037;-78
2024/01/04 05:17:50;;;;;;;1.30;0.30;;;;;;;5.76;100.00;91966.88;2091367;28;20386;-76
2024/01/04 05:18:50;;;;;;;1.35;0.52;;;;;;;5.74;100.00;91968.44;2097908;28;20043;-78
2024/01/04 05:19:51;;;;;;;2.10;0.35;;;;;;;5.75;100.00;91957.44;2096009;28;20052;-77
2024/01/04 05:20:52;;;;;;;0.65;0.30;;;;;;;5.42;100.00;91966.50;2100978;28;20106;-79
2024/01/04 05:21:53;;;;;;;0.80;0.20;;;;;;;5.52;100.00;91968.91;2105633;28;20077;-80
2024/01/04 05:22:54;;;;;;;2.83;0.40;;;;;;;5.44;100.00;91959.63;2103627;28;20032;-77
2024/01/04 05:23:55;;;;;;;1.58;0.40;;;;;;;5.33;100.00;91976.91;2100237;28;20079;-81
2024/01/04 05:24:56;;;;;;;1.27;0.30;;;;;;;5.16;100.00;91971.56;2085748;28;20029;-79
2024/01/04 05:25:57;;;;;;;0.38;0.28;;;;;;;5.28;100.00;91972.84;2090615;28;20024;-80
2024/01/04 05:26:58;;;;;;;2.08;0.55;;;;;;;5.13;100.00;91976.91;2087773;28;20036;-78
2024/01/04 05:28:00;;;;;;;2.10;0.45;;;;;;;5.24;100.00;91967.63;2074968;28;20061;-78
2024/01/04 05:29:01;;;;;;;1.67;0.20;;;;;;;5.27;100.00;91977.41;2083107;28;20444;-78
2024/01/04 05:30:02;;;;;;;0.43;0.20;;;;;;;5.33;100.00;91979.56;2090590;28;20076;-82
2024/01/04 05:33:48;;;;;;;0.95;0.30;;;;;;;5.18;100.00;91979.09;2108294;28;20399;-81
2024/01/04 05:36:47;;;;;;;0.25;0.20;;;;;;;5.24;100.00;91972.91;2105287;28;20031;-79
2024/01/04 05:38:36;;;;;;;2.30;0.43;;;;;;;5.27;100.00;91987.25;2104368;28;20032;-79
2024/01/04 05:39:37;;;;;;;1.00;0.30;;;;;;;5.21;100.00;91984.31;2108929;27;20537;-78
2024/01/04 05:40:38;;;;;;;1.25;0.40;;;;;;;5.17;100.00;91974.94;2116093;27;20055;-79
2024/01/04 05:41:39;;;;;;;0.30;0.20;;;;;;;5.07;100.00;91974.00;2109280;28;20031;-77
2024/01/04 05:43:29;;;;;;;1.20;0.30;;;;;;;4.97;100.00;91983.66;2100391;28;20071;-82
2024/01/04 05:46:55;;;;;;;2.00;0.30;;;;;;;4.83;100.00;91980.50;2102131;28;19990;-81
2024/01/04 05:50:09;;;;;;;1.83;0.50;;;;;;;4.72;100.00;91983.38;2097593;28;20059;-80
2024/01/04 05:51:31;;;;;;;1.50;0.32;;;;;;;4.69;100.00;91986.81;2095985;28;20185;-79
2024/01/04 05:52:33;;;;;;;0.20;0.20;;;;;;;4.83;100.00;91991.88;2103772;28;20017;-79
2024/01/04 05:53:36;;;;;;;1.98;0.45;;;;;;;4.89;100.00;91989.50;2100053;28;20025;-78
2024/01/04 05:54:36;;;;;;;2.22;0.50;;;;;;;4.67;100.00;91978.56;2093437;28;20026;-80
2024/01/04 05:55:37;;;;;;;0.85;0.30;;;;;;;4.75;100.00;91990.50;2091640;28;20056;-80
2024/01/04 05:56:38;;;;;;;2.15;0.50;;;;;;;4.78;100.00;91973.78;2076275;28;20609;-79
2024/01/04 05:57:39;;;;;;;2.05;0.40;;;;;;;4.78;100.00;91995.75;2076476;28;20029;-79
2024/01/04 05:58:40;;;;;;;1.27;0.30;;;;;;;4.76;100.00;92002.59;2022934;28;20491;-79
2024/01/04 05:59:41;;;;;;;1.85;0.50;;;;;;;4.80;100.00;92008.56;1995983;28;20040;-79
2024/01/04 06:00:42;;;;;;;2.58;0.30;;;;;;;4.91;100.00;92008.34;1993056;28;20036;-80
2024/01/04 06:01:43;;;;;;;1.80;0.55;;;;;;;5.05;100.00;91995.63;1988550;28;20031;-80
2024/01/04 06:02:44;;;;;;;0.30;0.30;;;;;;;5.10;100.00;91993.66;2013716;28;20102;-79
2024/01/04 06:03:45;;;;;;;0.65;0.40;;;;;;;4.88;100.00;92019.78;2018129;28;23674;-80
2024/01/04 06:04:46;;;;;;;0.65;0.30;;;;;;;4.86;100.00;92003.53;2020682;28;20515;-79
2024/01/04 06:05:47;;;;;;;0.47;0.32;;;;;;;4.98;100.00;92014.28;2022523;28;20755;-78
2024/01/04 06:06:48;;;;;;;1.65;0.22;;;;;;;4.91;100.00;92009.09;2023488;28;20519;-80
2024/01/04 06:07:49;;;;;;;2.33;0.47;;;;;;;5.05;100.00;91998.25;2033371;28;20031;-80
2024/01/04 06:08:50;;;;;;;1.33;0.52;;;;;;;5.07;100.00;91999.75;2036367;28;21704;-77
2024/01/04 06:09:51;;;;;;;1.05;0.40;;;;;;;4.93;100.00;92001.50;2030562;28;20028;-79
2024/01/04 06:10:52;;;;;;;3.17;0.50;;;;;;;5.00;100.00;92001.38;2024802;28;20475;-78
2024/01/04 06:11:53;;;;;;;0.20;0.20;;;;;;;4.91;100.00;92003.81;2031004;28;22360;-79
2024/01/04 06:12:54;;;;;;;0.98;0.40;;;;;;;4.89;100.00;91992.16;2046383;28;20110;-80
2024/01/04 06:13:55;;;;;;;0.30;0.20;;;;;;;4.88;100.00;91996.69;2049239;28;20062;-80
2024/01/04 06:14:55;;;;;;;1.88;0.40;;;;;;;5.13;100.00;91996.19;2044906;28;20092;-80
2024/01/04 06:15:56;;;;;;;2.55;0.57;;;;;;;5.16;100.00;91986.72;2053099;28;20131;-77
2024/01/04 06:16:58;;;;;;;1.23;0.30;;;;;;;5.03;100.00;91982.03;2060120;28;20028;-78
2024/01/04 06:17:59;;;;;;;2.90;0.50;;;;;;;5.07;100.00;91989.16;2081589;28;20497;-79
2024/01/04 06:19:00;;;;;;;3.67;0.50;;;;;;;5.17;100.00;91993.50;2096934;28;20036;-78
2024/01/04 06:20:01;;;;;;;0.98;0.25;;;;;;;5.05;100.00;91982.38;2104004;28;20493;-80
2024/01/04 06:21:02;;;;;;;0.85;0.30;;;;;;;5.15;100.00;91998.47;2086901;28;20055;-79
2024/01/04 06:22:03;;;;;;;3.50;0.60;;;;;;;5.10;100.00;91999.69;2088022;28;20082;-81
2024/01/04 06:23:04;;;;;;;1.42;0.40;;;;;;;5.23;100.00;92010.41;2095958;28;20074;-80
2024/01/04 06:24:05;;;;;;;2.70;0.40;;;;;;;5.20;100.00;92000.63;2095994;28;20040;-78
2024/01/04 06:25:07;;;;;;;1.75;0.40;;;;;;;5.16;100.00;92015.84;2104226;28;20403;-77
2024/01/04 06:26:08;;;;;;;1.98;0.40;;;;;;;5.34;100.00;92012.84;2096177;28;20028;-79
2024/01/04 06:27:09;;;;;;;1.35;0.40;;;;;;;5.12;100.00;92026.50;2104416;28;20031;-80
2024/01/04 06:28:10;;;;;;;1.00;0.40;;;;;;;5.14;100.00;92040.09;2087529;28;20029;-82
2024/01/04 06:29:11;;;;;;;1.88;0.30;;;;;;;5.03;100.00;92013.06;2083477;28;20026;-80
2024/01/04 06:30:12;;;;;;;2.25;0.40;;;;;;;5.15;100.00;92033.63;2104319;28;20040;-79
2024/01/04 06:31:13;;;;;;;3.25;0.40;;;;;;;5.18;100.00;92021.47;2092648;28;20091;-78
2024/01/04 06:32:14;;;;;;;0.60;0.35;;;;;;;5.12;100.00;92031.06;2092814;28;20024;-81
2024/01/04 06:33:15;;;;;;;1.38;0.40;;;;;;;5.07;100.00;92032.28;2091526;28;20032;-79
2024/01/04 06:34:16;;;;;;;3.70;0.70;;;;;;;5.15;100.00;92025.69;2075913;28;20360;-80
2024/01/04 06:35:25;;;;;;;2.40;0.40;;;;;;;5.17;100.00;92030.56;2086064;28;20044;-82
2024/01/04 06:36:26;;;;;;;2.47;0.50;;;;;;;5.11;100.00;92034.88;2090056;28;20064;-80